Time;durP1;ratioP1;P1;durP2;ratioP2;P2;SDS_P1;SDS_P2;PMS_P1;PMS_P2;Temp;Humidity;BMP_temperature;BMP_pressure;BME280_temperature;BME280_humidity;BME280_pressure;Samples;Min_cycle;Max_cycle;Signal;HPM_P1;HPM_P2
2023/06/23 00:00:50;;;;;;;;;;;;;;;23.39;100.00;99514.66;5031755;28;19917;-77
2023/06/23 00:03:16;;;;;;;;;;;;;;;23.26;100.00;99516.47;5031655;28;20370;-77
2023/06/23 00:05:41;;;;;;;;;;;;;;;23.11;100.00;99512.50;5031619;28;19921;-76
2023/06/23 00:08:06;;;;;;;;;;;;;;;23.06;100.00;99512.38;5035770;28;19924;-76
2023/06/23 00:10:32;;;;;;;;;;;;;;;22.92;100.00;99509.00;5038994;28;20503;-76
2023/06/23 00:12:57;;;;;;;;;;;;;;;22.72;100.00;99511.91;5024052;28;20719;-76
2023/06/23 00:15:22;;;;;;;;;;;;;;;22.75;100.00;99516.00;5028174;28;19917;-76
2023/06/23 00:17:49;;;;;;;;;;;;;;;22.81;100.00;99517.81;5025076;28;20423;-76
2023/06/23 00:20:15;;;;;;;;;;;;;;;22.92;100.00;99518.94;5031908;28;19992;-76
2023/06/23 00:22:41;;;;;;;;;;;;;;;23.06;100.00;99506.97;5031645;28;20419;-77
2023/06/23 00:25:10;;;;;;;;;;;;;;;23.12;100.00;99514.97;5026190;28;19917;-77
2023/06/23 00:27:37;;;;;;;;;;;;;;;23.23;100.00;99510.72;5031774;28;20389;-77
2023/06/23 00:30:02;;;;;;;;;;;;;;;23.30;100.00;99516.03;5005255;28;19918;-77
2023/06/23 00:32:28;;;;;;;;;;;;;;;23.31;100.00;99523.06;5026608;28;19917;-77
2023/06/23 00:34:53;;;;;;;;;;;;;;;23.35;100.00;99516.16;5030898;28;19971;-78
2023/06/23 00:37:19;;;;;;;;;;;;;;;23.36;100.00;99520.50;5038994;28;19963;-78
2023/06/23 00:39:44;;;;;;;;;;;;;;;23.40;100.00;99516.28;5029994;28;19928;-77
2023/06/23 00:42:10;;;;;;;;;;;;;;;23.43;100.00;99532.00;5030456;28;19924;-77
2023/06/23 00:44:37;;;;;;;;;;;;;;;23.44;100.00;99523.72;5031624;28;19917;-77
2023/06/23 00:47:03;;;;;;;;;;;;;;;23.41;100.00;99523.34;5038052;28;20372;-77
2023/06/23 00:49:29;;;;;;;;;;;;;;;23.44;100.00;99525.59;5030112;28;19917;-78
2023/06/23 00:51:55;;;;;;;;;;;;;;;23.39;100.00;99526.25;5031206;28;19996;-77
2023/06/23 00:54:23;;;;;;;;;;;;;;;23.23;100.00;99525.00;5031009;28;19924;-77
2023/06/23 00:56:49;;;;;;;;;;;;;;;23.13;100.00;99510.44;5031183;28;19921;-77
2023/06/23 00:59:15;;;;;;;;;;;;;;;23.13;100.00;99513.94;5027230;28;19917;-77
2023/06/23 01:01:41;;;;;;;;;;;;;;;23.03;100.00;99519.00;5021128;28;20395;-76
2023/06/23 01:04:08;;;;;;;;;;;;;;;22.97;100.00;99514.53;5027543;28;19917;-77
2023/06/23 01:06:46;;;;;;;;;;;;;;;22.98;100.00;99513.47;5039208;28;19940;-76
2023/06/23 01:09:31;;;;;;;;;;;;;;;23.05;100.00;99514.22;5028942;28;19927;-76
2023/06/23 01:12:16;;;;;;;;;;;;;;;23.07;100.00;99505.94;5026908;28;20022;-76
2023/06/23 01:14:52;;;;;;;;;;;;;;;23.06;100.00;99499.72;5042937;28;19917;-76
2023/06/23 01:17:26;;;;;;;;;;;;;;;22.92;100.00;99509.00;5029016;28;19923;-77
2023/06/23 01:19:53;;;;;;;;;;;;;;;22.83;100.00;99510.34;5027023;28;20012;-76
2023/06/23 01:22:32;;;;;;;;;;;;;;;22.84;100.00;99514.69;5031378;28;20042;-76
2023/06/23 01:25:17;;;;;;;;;;;;;;;22.79;100.00;99509.97;5026612;28;20055;-77
2023/06/23 01:28:01;;;;;;;;;;;;;;;22.74;100.00;99500.91;5028898;28;19917;-76
2023/06/23 01:30:28;;;;;;;;;;;;;;;22.58;100.00;99506.81;5027522;28;20361;-76
2023/06/23 01:33:04;;;;;;;;;;;;;;;22.45;100.00;99503.22;5030589;28;19924;-75
2023/06/23 01:35:33;;;;;;;;;;;;;;;22.39;100.00;99493.34;5043121;28;19955;-74
2023/06/23 01:38:04;;;;;;;;;;;;;;;22.48;100.00;99501.13;5023306;28;20374;-74
2023/06/23 01:40:31;;;;;;;;;;;;;;;22.41;100.00;99502.03;5025197;28;20361;-76
2023/06/23 01:42:58;;;;;;;;;;;;;;;22.40;100.00;99500.38;5030429;28;19924;-76
2023/06/23 01:45:25;;;;;;;;;;;;;;;22.45;100.00;99502.38;5030818;28;20377;-75
2023/06/23 01:47:51;;;;;;;;;;;;;;;22.43;100.00;99499.94;5030100;28;19970;-77
2023/06/23 01:50:18;;;;;;;;;;;;;;;22.45;100.00;99505.91;5024886;28;20053;-76
2023/06/23 01:52:45;;;;;;;;;;;;;;;22.49;100.00;99509.00;5028742;28;19923;-77
2023/06/23 01:55:12;;;;;;;;;;;;;;;22.51;100.00;99506.06;5033390;28;19924;-76
2023/06/23 01:57:38;;;;;;;;;;;;;;;22.56;100.00;99508.94;5034010;28;19953;-75
2023/06/23 02:00:11;;;;;;;;;;;;;;;22.67;100.00;99510.91;5033171;28;20270;-77
2023/06/23 02:02:43;;;;;;;;;;;;;;;22.73;100.00;99515.41;5034695;28;19921;-76
2023/06/23 02:05:11;;;;;;;;;;;;;;;22.80;100.00;99521.53;5011905;28;20328;-76
2023/06/23 02:07:37;;;;;;;;;;;;;;;22.85;100.00;99527.09;5033824;28;20015;-76
2023/06/23 02:10:05;;;;;;;;;;;;;;;22.84;100.00;99544.28;5037801;28;19928;-75
2023/06/23 02:12:32;;;;;;;;;;;;;;;22.95;100.00;99535.47;5030893;28;19971;-77
2023/06/23 02:14:58;;;;;;;;;;;;;;;22.97;100.00;99533.38;5032509;28;19921;-75
2023/06/23 02:17:24;;;;;;;;;;;;;;;23.05;100.00;99532.25;5033773;28;19917;-77
2023/06/23 02:19:50;;;;;;;;;;;;;;;23.07;100.00;99543.63;5033519;28;19971;-75
2023/06/23 02:22:18;;;;;;;;;;;;;;;23.03;100.00;99542.44;5045988;28;19917;-77
2023/06/23 02:24:45;;;;;;;;;;;;;;;23.04;100.00;99539.50;5033263;28;20001;-77
2023/06/23 02:27:11;;;;;;;;;;;;;;;22.91;100.00;99541.53;5029868;28;19924;-77
2023/06/23 02:29:38;;;;;;;;;;;;;;;22.90;100.00;99550.63;5030458;28;19918;-77
2023/06/23 02:32:04;;;;;;;;;;;;;;;22.95;100.00;99546.22;5030969;28;20385;-77
2023/06/23 02:34:30;;;;;;;;;;;;;;;22.99;100.00;99542.03;5033668;28;19967;-77
2023/06/23 02:36:58;;;;;;;;;;;;;;;23.02;100.00;99547.00;5032938;28;20282;-77
2023/06/23 02:39:25;;;;;;;;;;;;;;;22.80;100.00;99549.25;5036918;28;20292;-77
2023/06/23 02:41:54;;;;;;;;;;;;;;;22.61;100.00;99557.50;5033476;28;19924;-77
2023/06/23 02:44:34;;;;;;;;;;;;;;;22.66;100.00;99547.72;5032898;28;19959;-77
2023/06/23 02:47:02;;;;;;;;;;;;;;;22.71;100.00;99550.56;5032245;28;19917;-76
2023/06/23 02:49:28;;;;;;;;;;;;;;;22.67;100.00;99553.94;5033773;28;19979;-76
2023/06/23 02:51:57;;;;;;;;;;;;;;;22.63;100.00;99558.91;5032890;28;19917;-77
2023/06/23 02:54:23;;;;;;;;;;;;;;;22.62;100.00;99561.84;5031649;28;20015;-77
2023/06/23 02:56:51;;;;;;;;;;;;;;;22.61;100.00;99560.19;5029318;28;20391;-77
2023/06/23 02:59:19;;;;;;;;;;;;;;;22.61;100.00;99560.19;5045289;28;20050;-78
2023/06/23 03:01:46;;;;;;;;;;;;;;;22.61;100.00;99554.81;5039867;28;19928;-77
2023/06/23 03:04:12;;;;;;;;;;;;;;;22.50;100.00;99558.22;5032107;28;19921;-77
2023/06/23 03:06:38;;;;;;;;;;;;;;;22.49;100.00;99556.56;5031864;28;20377;-77
2023/06/23 03:09:04;;;;;;;;;;;;;;;22.45;100.00;99562.38;5035105;28;19921;-77
2023/06/23 03:11:30;;;;;;;;;;;;;;;22.30;100.00;99564.56;5033154;28;19917;-77
2023/06/23 03:13:57;;;;;;;;;;;;;;;22.29;100.00;99568.28;5032970;28;19947;-77
2023/06/23 03:16:28;;;;;;;;;;;;;;;22.22;100.00;99567.50;5033814;28;19925;-77
2023/06/23 03:19:00;;;;;;;;;;;;;;;22.23;100.00;99565.66;5032455;28;19917;-77
2023/06/23 03:21:25;;;;;;;;;;;;;;;22.25;100.00;99569.78;5033114;28;20344;-76
2023/06/23 03:23:52;;;;;;;;;;;;;;;22.16;100.00;99563.00;5029835;28;19952;-76
2023/06/23 03:26:19;;;;;;;;;;;;;;;22.26;100.00;99557.16;5031551;28;19917;-77
2023/06/23 03:28:46;;;;;;;;;;;;;;;22.18;100.00;99554.72;5026943;28;20020;-76
2023/06/23 03:31:15;;;;;;;;;;;;;;;22.18;100.00;99558.25;5048326;28;19971;-76
2023/06/23 03:33:44;;;;;;;;;;;;;;;22.23;100.00;99558.41;5028869;28;20293;-77
2023/06/23 03:36:20;;;;;;;;;;;;;;;22.15;100.00;99564.03;5032884;28;19924;-76
2023/06/23 03:39:02;;;;;;;;;;;;;;;21.92;100.00;99566.44;5033081;28;19917;-79
2023/06/23 03:41:28;;;;;;;;;;;;;;;21.74;100.00;99569.84;5027677;28;19917;-78
2023/06/23 03:43:56;;;;;;;;;;;;;;;21.65;100.00;99573.81;5027790;28;19951;-77
2023/06/23 03:46:47;;;;;;;;;;;;;;;21.49;100.00;99572.44;5032716;28;20011;-77
2023/06/23 03:49:14;;;;;;;;;;;;;;;21.41;100.00;99575.34;5028314;28;20004;-78
2023/06/23 03:51:41;;;;;;;;;;;;;;;21.43;100.00;99578.66;5032312;28;19956;-77
2023/06/23 03:54:07;;;;;;;;;;;;;;;21.53;100.00;99587.09;5031701;28;20280;-77
2023/06/23 03:56:34;;;;;;;;;;;;;;;21.60;100.00;99590.56;5033031;28;19921;-76
2023/06/23 03:59:01;;;;;;;;;;;;;;;21.62;100.00;99587.66;5027806;28;20003;-75
2023/06/23 04:01:28;;;;;;;;;;;;;;;21.60;100.00;99579.84;5031933;28;19917;-78
2023/06/23 04:03:55;;;;;;;;;;;;;;;21.57;100.00;99585.63;5031934;28;19924;-76
2023/06/23 04:06:22;;;;;;;;;;;;;;;21.60;100.00;99582.53;5032584;28;19917;-77
2023/06/23 04:08:48;;;;;;;;;;;;;;;21.61;100.00;99581.50;5329066;22;19967;-76
2023/06/23 04:11:14;;;;;;;;;;;;;;;21.63;100.00;99579.38;5050571;28;19955;-75
2023/06/23 04:13:40;;;;;;;;;;;;;;;21.64;100.00;99591.78;5047399;28;20364;-78
2023/06/23 04:16:07;;;;;;;;;;;;;;;21.63;100.00;99584.75;5047056;28;19920;-78
2023/06/23 04:18:33;;;;;;;;;;;;;;;21.56;100.00;99583.97;5049248;28;19912;-78
2023/06/23 04:21:00;;;;;;;;;;;;;;;21.48;100.00;99589.59;5043814;28;19928;-78
2023/06/23 04:23:26;;;;;;;;;;;;;;;21.44;100.00;99596.41;5050171;28;19916;-79
2023/06/23 04:25:52;;;;;;;;;;;;;;;21.44;100.00;99604.44;5043288;28;19919;-78
2023/06/23 04:28:18;;;;;;;;;;;;;;;21.43;100.00;99599.31;5047737;28;19995;-78
2023/06/23 04:30:44;;;;;;;;;;;;;;;21.36;100.00;99612.75;5045493;28;19912;-78
2023/06/23 04:33:10;;;;;;;;;;;;;;;21.33;100.00;99613.16;5048291;28;19920;-79
2023/06/23 04:35:36;;;;;;;;;;;;;;;21.33;100.00;99626.56;5041893;28;19941;-79
2023/06/23 04:38:12;;;;;;;;;;;;;;;21.39;100.00;99620.38;5043710;28;19974;-78
2023/06/23 04:40:40;;;;;;;;;;;;;;;21.45;100.00;99624.06;5046180;28;20365;-77
2023/06/23 04:43:13;;;;;;;;;;;;;;;21.41;100.00;99623.69;5046854;28;20031;-78
2023/06/23 04:46:01;;;;;;;;;;;;;;;21.33;100.00;99615.84;5047092;28;19942;-77
2023/06/23 04:48:29;;;;;;;;;;;;;;;21.19;100.00;99609.69;5007127;28;19913;-77
2023/06/23 04:50:56;;;;;;;;;;;;;;;21.19;100.00;99614.25;5049318;28;19923;-79
2023/06/23 04:53:25;;;;;;;;;;;;;;;21.23;100.00;99615.47;5045851;28;19917;-77
2023/06/23 04:55:53;;;;;;;;;;;;;;;21.34;100.00;99612.13;5048675;28;19916;-79
2023/06/23 04:58:19;;;;;;;;;;;;;;;21.42;100.00;99616.44;5045112;28;19925;-79
2023/06/23 05:00:45;;;;;;;;;;;;;;;21.42;100.00;99619.13;5046547;28;19961;-78
2023/06/23 05:03:11;;;;;;;;;;;;;;;21.48;100.00;99607.56;5048995;28;20016;-78
2023/06/23 05:05:38;;;;;;;;;;;;;;;21.53;100.00;99616.63;5047073;28;19916;-79
2023/06/23 05:08:04;;;;;;;;;;;;;;;21.62;100.00;99620.69;5043050;28;19923;-79
2023/06/23 05:10:30;;;;;;;;;;;;;;;21.69;100.00;99630.59;5050470;28;20681;-79
2023/06/23 05:12:58;;;;;;;;;;;;;;;21.44;100.00;99642.03;5044019;28;19925;-79
2023/06/23 05:15:24;;;;;;;;;;;;;;;21.34;100.00;99652.38;5046493;28;19967;-79
2023/06/23 05:17:51;;;;;;;;;;;;;;;21.42;100.00;99656.72;5045141;28;19916;-78
2023/06/23 05:20:18;;;;;;;;;;;;;;;21.52;100.00;99641.00;5047162;28;19947;-79
2023/06/23 05:22:46;;;;;;;;;;;;;;;21.57;100.00;99639.31;5042466;28;19913;-77
2023/06/23 05:25:12;;;;;;;;;;;;;;;21.67;100.00;99654.19;5026976;28;19956;-74
2023/06/23 05:27:43;;;;;;;;;;;;;;;21.72;100.00;99654.34;5044308;28;20411;-76
2023/06/23 05:30:09;;;;;;;;;;;;;;;21.75;100.00;99649.38;5047612;28;20045;-77
2023/06/23 05:32:37;;;;;;;;;;;;;;;21.71;100.00;99644.66;5054342;28;19916;-78
2023/06/23 05:35:04;;;;;;;;;;;;;;;21.75;100.00;99640.50;5050888;28;20300;-77
2023/06/23 05:37:31;;;;;;;;;;;;;;;21.75;100.00;99633.25;5050596;28;19917;-76
2023/06/23 05:39:57;;;;;;;;;;;;;;;21.70;100.00;99649.19;5047836;28;19994;-77
2023/06/23 05:42:23;;;;;;;;;;;;;;;21.72;100.00;99649.00;5049471;28;19947;-77
2023/06/23 05:44:48;;;;;;;;;;;;;;;21.78;100.00;99651.66;5049164;28;20368;-78
2023/06/23 05:47:20;;;;;;;;;;;;;;;21.72;100.00;99651.66;5045145;28;20042;-81
2023/06/23 05:49:46;;;;;;;;;;;;;;;21.78;100.00;99650.81;5046202;28;19921;-79
2023/06/23 05:52:15;;;;;;;;;;;;;;;21.76;100.00;99648.34;5050996;28;19963;-78
2023/06/23 05:54:42;;;;;;;;;;;;;;;21.82;100.00;99646.66;5046565;28;19917;-76
2023/06/23 05:57:10;;;;;;;;;;;;;;;21.83;100.00;99653.69;5051908;28;20343;-78
2023/06/23 05:59:42;;;;;;;;;;;;;;;21.88;100.00;99649.31;5052909;28;19935;-76
2023/06/23 06:02:10;;;;;;;;;;;;;;;21.97;100.00;99655.31;5048514;28;19924;-79
2023/06/23 06:04:38;;;;;;;;;;;;;;;21.94;100.00;99653.03;5049881;28;19917;-80
2023/06/23 06:07:04;;;;;;;;;;;;;;;22.00;100.00;99654.88;5045119;28;19921;-80
2023/06/23 06:09:30;;;;;;;;;;;;;;;22.09;100.00;99653.59;5047222;28;20296;-79
2023/06/23 06:11:57;;;;;;;;;;;;;;;22.22;100.00;99658.91;5051304;28;20862;-79
2023/06/23 06:14:23;;;;;;;;;;;;;;;22.30;100.00;99664.03;5051758;28;19932;-80
2023/06/23 06:16:50;;;;;;;;;;;;;;;22.28;100.00;99657.22;5048670;28;19962;-79
2023/06/23 06:19:19;;;;;;;;;;;;;;;22.31;100.00;99657.63;5049048;28;19917;-79
2023/06/23 06:21:45;;;;;;;;;;;;;;;22.40;100.00;99650.94;5047321;28;19924;-78
2023/06/23 06:24:11;;;;;;;;;;;;;;;22.53;100.00;99651.88;5045156;28;19917;-78
2023/06/23 06:26:36;;;;;;;;;;;;;;;22.60;100.00;99660.75;5049736;28;20395;-80
2023/06/23 06:29:05;;;;;;;;;;;;;;;22.67;100.00;99667.72;5043598;28;20031;-79
2023/06/23 06:31:32;;;;;;;;;;;;;;;22.78;100.00;99666.22;5047986;28;19917;-80
2023/06/23 06:33:59;;;;;;;;;;;;;;;22.90;100.00;99667.16;5045641;28;20443;-81
2023/06/23 06:36:25;;;;;;;;;;;;;;;23.01;100.00;99674.50;5049165;28;19967;-80
2023/06/23 06:38:51;;;;;;;;;;;;;;;23.12;100.00;99679.19;5048430;28;19960;-80
2023/06/23 06:41:17;;;;;;;;;;;;;;;23.16;100.00;99685.75;5047631;28;20460;-80
2023/06/23 06:43:44;;;;;;;;;;;;;;;23.24;100.00;99688.19;5048729;28;19964;-80
2023/06/23 06:46:09;;;;;;;;;;;;;;;23.35;100.00;99691.19;5047862;28;19999;-81
2023/06/23 06:48:55;;;;;;;;;;;;;;;23.47;100.00;99679.50;5048477;28;19923;-79
2023/06/23 06:51:21;;;;;;;;;;;;;;;23.57;100.00;99673.56;5049808;28;19939;-80
2023/06/23 06:53:46;;;;;;;;;;;;;;;23.67;100.00;99679.28;5047286;28;20435;-81
2023/06/23 06:56:13;;;;;;;;;;;;;;;23.72;100.00;99682.13;5049573;28;19916;-81
2023/06/23 06:58:39;;;;;;;;;;;;;;;23.81;100.00;99686.16;5047609;28;19917;-80
2023/06/23 07:01:05;;;;;;;;;;;;;;;23.88;100.00;99686.91;5040644;28;19938;-80
2023/06/23 07:03:32;;;;;;;;;;;;;;;23.93;100.00;99684.34;5048437;28;19925;-78
2023/06/23 07:05:57;;;;;;;;;;;;;;;24.02;100.00;99683.00;5047248;28;20367;-79
2023/06/23 07:08:23;;;;;;;;;;;;;;;24.11;100.00;99693.47;5044764;28;19924;-77
2023/06/23 07:10:48;;;;;;;;;;;;;;;24.08;100.00;99681.28;5043365;28;19917;-81
2023/06/23 07:13:14;;;;;;;;;;;;;;;24.07;100.00;99688.53;5048844;28;19977;-78
2023/06/23 07:15:40;;;;;;;;;;;;;;;24.06;100.00;99683.38;5049111;28;19917;-79
2023/06/23 07:18:05;;;;;;;;;;;;;;;24.02;100.00;99683.00;5047297;28;20295;-78
2023/06/23 07:20:30;;;;;;;;;;;;;;;24.07;100.00;99691.22;5045259;28;20000;-75
2023/06/23 07:22:56;;;;;;;;;;;;;;;24.14;100.00;99684.94;5048430;28;20163;-77
2023/06/23 07:25:21;;;;;;;;;;;;;;;24.14;100.00;99680.38;5046611;28;19913;-77
2023/06/23 07:27:48;;;;;;;;;;;;;;;24.17;100.00;99679.06;5051011;28;20408;-75
2023/06/23 07:30:14;;;;;;;;;;;;;;;24.17;100.00;99674.50;5051884;28;19960;-74
2023/06/23 07:32:39;;;;;;;;;;;;;;;24.24;100.00;99674.44;5047185;28;19941;-77
2023/06/23 07:35:06;;;;;;;;;;;;;;;24.31;100.00;99677.88;5047713;28;19920;-76
2023/06/23 07:37:31;;;;;;;;;;;;;;;24.37;100.00;99682.38;5047614;28;20253;-76
2023/06/23 07:39:57;;;;;;;;;;;;;;;24.39;100.00;99680.25;5047631;28;19971;-75
2023/06/23 07:42:22;;;;;;;;;;;;;;;24.40;100.00;99677.31;5047092;28;20007;-76
2023/06/23 07:44:47;;;;;;;;;;;;;;;24.49;100.00;99672.44;5048791;28;19912;-75
2023/06/23 07:47:13;;;;;;;;;;;;;;;24.58;100.00;99676.44;5045946;28;19916;-79
2023/06/23 07:49:38;;;;;;;;;;;;;;;24.65;100.00;99671.78;5043981;28;19995;-75
2023/06/23 07:52:04;;;;;;;;;;;;;;;24.74;100.00;99667.66;5043459;28;20303;-76
2023/06/23 07:54:30;;;;;;;;;;;;;;;24.80;100.00;99674.84;5042745;28;20332;-75
2023/06/23 07:56:56;;;;;;;;;;;;;;;24.84;100.00;99662.53;5042204;28;20015;-77
2023/06/23 07:59:21;;;;;;;;;;;;;;;24.90;100.00;99668.09;5043994;28;20019;-78
2023/06/23 08:01:47;;;;;;;;;;;;;;;24.96;100.00;99669.88;5044185;28;19917;-77
2023/06/23 08:04:12;;;;;;;;;;;;;;;25.02;100.00;99666.22;5041359;28;20004;-78
2023/06/23 08:06:37;;;;;;;;;;;;;;;25.08;100.00;99665.31;5048483;28;19947;-77
2023/06/23 08:09:03;;;;;;;;;;;;;;;25.10;100.00;99658.59;5041685;28;20348;-76
2023/06/23 08:11:29;;;;;;;;;;;;;;;25.15;100.00;99666.00;5043237;28;19916;-78
2023/06/23 08:13:55;;;;;;;;;;;;;;;25.21;100.00;99670.47;5049388;28;19966;-78
2023/06/23 08:16:20;;;;;;;;;;;;;;;25.29;100.00;99670.09;5042533;28;19975;-77
2023/06/23 08:18:45;;;;;;;;;;;;;;;25.35;100.00;99677.25;5049361;28;19920;-77
2023/06/23 08:21:11;;;;;;;;;;;;;;;25.41;100.00;99676.31;5044665;28;19917;-77
2023/06/23 08:23:36;;;;;;;;;;;;;;;25.48;100.00;99674.31;5049020;28;20342;-77
2023/06/23 08:26:01;;;;;;;;;;;;;;;25.56;100.00;99683.97;5047069;28;19928;-78
2023/06/23 08:28:28;;;;;;;;;;;;;;;25.59;100.00;99673.53;5046668;28;19923;-77
2023/06/23 08:30:54;;;;;;;;;;;;;;;25.64;100.00;99676.31;5042552;28;20372;-78
2023/06/23 08:33:19;;;;;;;;;;;;;;;25.69;100.00;99679.13;5046564;28;19920;-76
2023/06/23 08:35:45;;;;;;;;;;;;;;;25.71;100.00;99676.19;5048928;28;20027;-75
2023/06/23 08:38:13;;;;;;;;;;;;;;;25.69;99.44;99673.72;5047650;28;19924;-78
2023/06/23 08:40:40;;;;;;;;;;;;;;;25.73;99.87;99667.88;5045137;28;19923;-76
2023/06/23 08:43:06;;;;;;;;;;;;;;;25.78;96.38;99670.66;5046297;28;19986;-78
2023/06/23 08:45:33;;;;;;;;;;;;;;;25.90;92.63;99676.88;5046580;28;20348;-77
2023/06/23 08:48:00;;;;;;;;;;;;;;;25.99;91.27;99680.81;5047498;28;19927;-76
2023/06/23 08:50:26;;;;;;;;;;;;;;;26.08;92.07;99671.28;5046835;28;20012;-77
2023/06/23 08:52:51;;;;;;;;;;;;;;;26.14;89.33;99681.16;5048079;28;20011;-78
2023/06/23 08:55:17;;;;;;;;;;;;;;;26.19;89.69;99666.88;5042116;28;19917;-78
2023/06/23 08:57:42;;;;;;;;;;;;;;;26.21;89.13;99665.59;5048868;28;19917;-78
2023/06/23 09:00:08;;;;;;;;;;;;;;;26.23;90.99;99677.00;5049849;28;19952;-78
2023/06/23 09:02:33;;;;;;;;;;;;;;;26.24;90.66;99675.94;5045499;28;20389;-78
2023/06/23 09:04:59;;;;;;;;;;;;;;;26.27;91.28;99670.03;5045701;28;19917;-78
2023/06/23 09:07:25;;;;;;;;;;;;;;;26.30;89.28;99669.56;5047460;28;20356;-79
2023/06/23 09:09:50;;;;;;;;;;;;;;;26.41;82.41;99663.28;5048749;28;20360;-78
2023/06/23 09:12:16;;;;;;;;;;;;;;;26.48;83.91;99666.66;5047401;28;19921;-78
2023/06/23 09:14:42;;;;;;;;;;;;;;;26.58;83.95;99665.19;5045203;28;19917;-79
2023/06/23 09:17:08;;;;;;;;;;;;;;;26.60;85.35;99669.31;5048294;28;20292;-78
2023/06/23 09:19:34;;;;;;;;;;;;;;;26.63;86.63;99670.69;5044897;28;20376;-78
2023/06/23 09:22:00;;;;;;;;;;;;;;;26.66;86.91;99659.38;5045277;28;19966;-77
2023/06/23 09:24:38;;;;;;;;;;;;;;;26.71;86.48;99654.88;5046330;28;20323;-78
2023/06/23 09:27:03;;;;;;;;;;;;;;;26.85;84.89;99658.91;5043618;28;19921;-78
2023/06/23 09:29:29;;;;;;;;;;;;;;;26.88;86.48;99665.75;5043728;28;20032;-78
2023/06/23 09:31:55;;;;;;;;;;;;;;;26.98;83.04;99665.91;5047713;28;20007;-77
2023/06/23 09:34:21;;;;;;;;;;;;;;;27.16;80.28;99662.94;5042754;28;19916;-76
2023/06/23 09:36:47;;;;;;;;;;;;;;;27.16;79.95;99656.69;5045513;28;20701;-77
2023/06/23 09:39:14;;;;;;;;;;;;;;;27.17;79.87;99656.44;5045090;28;20019;-77
2023/06/23 09:41:44;;;;;;;;;;;;;;;27.20;78.44;99664.09;5044811;28;19917;-76
2023/06/23 09:44:11;;;;;;;;;;;;;;;27.22;78.39;99661.94;5062297;28;19966;-76
2023/06/23 09:46:36;;;;;;;;;;;;;;;27.35;74.82;99670.78;5046553;28;20388;-78
2023/06/23 09:49:01;;;;;;;;;;;;;;;27.58;74.51;99665.19;5041909;28;19921;-77
2023/06/23 09:51:27;;;;;;;;;;;;;;;27.58;74.82;99671.44;5050145;28;20358;-77
2023/06/23 09:53:52;;;;;;;;;;;;;;;27.61;75.62;99659.28;5044008;28;19924;-78
2023/06/23 09:56:21;;;;;;;;;;;;;;;27.60;74.97;99657.63;5049215;28;19927;-76
2023/06/23 09:58:47;;;;;;;;;;;;;;;27.61;74.08;99656.56;5044122;28;19921;-76
2023/06/23 10:01:14;;;;;;;;;;;;;;;27.60;75.92;99653.03;5048541;28;19955;-77
2023/06/23 10:03:43;;;;;;;;;;;;;;;27.61;73.01;99653.84;5046016;28;20007;-75
2023/06/23 10:06:19;;;;;;;;;;;;;;;27.64;72.90;99648.75;5045445;28;20334;-76
2023/06/23 10:08:44;;;;;;;;;;;;;;;27.63;69.77;99646.28;5045082;28;20007;-74
2023/06/23 10:11:10;;;;;;;;;;;;;;;27.68;70.33;99649.06;5040417;28;20020;-75
2023/06/23 10:13:35;;;;;;;;;;;;;;;27.70;71.70;99642.31;5046405;28;20335;-80
2023/06/23 10:16:01;;;;;;;;;;;;;;;27.77;68.79;99636.69;5052888;28;19921;-80
2023/06/23 10:18:27;;;;;;;;;;;;;;;27.87;67.42;99642.25;5051835;28;20023;-81
2023/06/23 10:20:53;;;;;;;;;;;;;;;28.04;63.44;99644.88;5045895;28;20353;-81
2023/06/23 10:23:21;;;;;;;;;;;;;;;28.10;64.72;99638.44;5049496;28;20047;-81
2023/06/23 10:25:47;;;;;;;;;;;;;;;28.18;62.86;99637.19;5047931;28;19920;-81
2023/06/23 10:28:12;;;;;;;;;;;;;;;28.18;62.69;99637.19;5045946;28;19927;-81
2023/06/23 10:30:41;;;;;;;2.47;1.73;;;;;;;28.19;63.32;99627.97;5050095;28;19917;-82
2023/06/23 10:33:09;;;;;;;;;;;;;;;28.25;63.25;99637.81;5046876;28;19925;-82
2023/06/23 10:35:36;;;;;;;;;;;;;;;28.27;60.90;99631.06;5043569;28;20415;-82
2023/06/23 10:38:03;;;;;;;;;;;;;;;28.34;57.36;99630.84;5047039;28;19917;-82
2023/06/23 10:40:33;;;;;;;;;;;;;;;28.35;57.23;99627.03;5044668;28;20054;-82
2023/06/23 10:43:01;;;;;;;;;;;;;;;28.39;58.84;99622.75;5051890;28;19916;-82
2023/06/23 10:45:26;;;;;;;;;;;;;;;28.45;57.46;99622.53;5046803;28;19921;-82
2023/06/23 10:47:52;;;;;;;2.72;2.40;;;;;;;28.46;59.30;99631.50;5047137;28;19923;-82
2023/06/23 10:50:18;;;;;;;2.20;1.85;;;;;;;28.49;59.29;99615.53;5047125;28;20037;-80
2023/06/23 10:52:43;;;;;;;;;;;;;;;28.53;59.10;99613.09;5049819;28;19920;-81
2023/06/23 10:55:27;;;;;;;;;;;;;;;28.57;59.90;99614.22;5044711;28;19975;-82
2023/06/23 10:58:08;;;;;;;;;;;;;;;28.63;59.21;99610.47;5049998;28;20012;-82
2023/06/23 11:00:34;;;;;;;;;;;;;;;28.69;57.28;99606.72;5048367;28;19998;-82
2023/06/23 11:02:59;;;;;;;;;;;;;;;28.81;51.95;99610.09;5047713;28;19979;-82
2023/06/23 11:05:25;;;;;;;2.53;2.33;;;;;;;28.77;54.42;99609.00;5048188;28;19921;-81
2023/06/23 11:08:01;;;;;;;2.65;2.30;;;;;;;28.82;56.18;99606.31;5045687;28;20028;-81
2023/06/23 11:10:45;;;;;;;2.17;2.08;;;;;;;28.83;53.94;99612.56;5046457;28;20116;-81
2023/06/23 11:13:14;;;;;;;2.45;2.20;;;;;;;28.81;55.95;99603.84;5048496;28;20115;-81
2023/06/23 11:15:40;;;;;;;2.53;2.33;;;;;;;28.83;55.75;99607.94;5047045;28;20044;-82
2023/06/23 11:18:06;;;;;;;3.63;2.10;;;;;;;28.88;57.28;99594.41;5046290;28;21033;-82
2023/06/23 11:20:39;;;;;;;4.60;2.88;;;;;;;29.00;55.26;99601.53;5048669;28;20112;-81
2023/06/23 11:23:10;;;;;;;2.30;2.10;;;;;;;29.09;53.45;99600.00;5041900;28;20029;-81
2023/06/23 11:25:44;;;;;;;1.73;1.63;;;;;;;29.16;50.88;99595.16;5048931;28;20028;-82
2023/06/23 11:28:25;;;;;;;2.33;1.70;;;;;;;29.18;50.73;99592.97;5044589;28;20029;-82
2023/06/23 11:31:10;;;;;;;2.33;2.10;;;;;;;29.20;52.99;99590.81;5044297;28;20037;-82
2023/06/23 11:33:37;;;;;;;2.00;1.77;;;;;;;29.26;53.51;99600.63;5047363;28;20041;-82
2023/06/23 11:36:04;;;;;;;;;;;;;;;29.29;49.41;99578.34;5043855;28;19921;-82
2023/06/23 11:38:30;;;;;;;;;;;;;;;29.33;49.27;99587.66;5051293;28;20675;-82
2023/06/23 11:40:59;;;;;;;;;;;;;;;29.42;47.46;99577.09;5045615;28;20356;-81
2023/06/23 11:43:24;;;;;;;;;;;;;;;29.49;42.91;99589.34;5048638;28;19985;-82
2023/06/23 11:45:56;;;;;;;;;;;;;;;29.50;44.49;99585.56;5046226;28;20838;-82
2023/06/23 11:48:30;;;;;;;;;;;;;;;29.55;43.62;99582.84;5043590;28;19924;-81
2023/06/23 11:50:57;;;;;;;;;;;;;;;29.55;44.74;99587.47;5048658;28;20237;-81
2023/06/23 11:53:23;;;;;;;;;;;;;;;29.58;45.66;99578.78;5045561;28;19917;-82
2023/06/23 11:55:49;;;;;;;;;;;;;;;29.71;45.88;99576.38;5045429;28;19916;-82
2023/06/23 11:58:15;;;;;;;;;;;;;;;29.81;45.87;99574.78;5047825;28;19939;-82
2023/06/23 12:00:40;;;;;;;;;;;;;;;29.90;46.11;99567.72;5045989;28;20372;-82
2023/06/23 12:03:05;;;;;;;;;;;;;;;29.98;46.52;99565.31;5049878;28;20421;-81
2023/06/23 12:05:35;;;;;;;;;;;;;;;30.13;45.75;99561.00;5043439;28;20426;-80
2023/06/23 12:08:00;;;;;;;;;;;;;;;30.29;46.22;99566.19;5043215;28;19920;-81
2023/06/23 12:10:28;;;;;;;;;;;;;;;30.40;44.29;99562.38;5046395;28;19943;-82
2023/06/23 12:12:57;;;;;;;;;;;;;;;30.52;44.16;99556.69;5045905;28;19925;-79
2023/06/23 12:15:23;;;;;;;;;;;;;;;30.62;41.39;99558.59;5048025;28;19928;-80
2023/06/23 12:17:48;;;;;;;;;;;;;;;30.72;40.84;99553.13;5045280;28;19917;-77
2023/06/23 12:20:17;;;;;;;;;;;;;;;30.86;40.11;99551.50;5047777;28;19917;-76
2023/06/23 12:22:42;;;;;;;;;;;;;;;31.01;36.68;99556.88;5046468;28;19917;-77
2023/06/23 12:25:08;;;;;;;;;;;;;;;31.13;37.42;99548.44;5042761;28;19925;-77
2023/06/23 12:27:36;;;;;;;;;;;;;;;31.30;35.56;99548.94;5046959;28;19921;-77
2023/06/23 12:30:16;;;;;;;;;;;;;;;31.45;34.16;99550.78;5043956;28;19916;-75
2023/06/23 12:32:41;;;;;;;;;;;;;;;31.56;33.74;99550.47;5046555;28;20007;-77
2023/06/23 12:35:08;;;;;;;;;;;;;;;31.63;33.85;99547.47;5046520;28;20016;-78
2023/06/23 12:37:47;;;;;;;;;;;;;;;31.70;33.39;99545.22;5048448;28;19950;-80